This is the latest recevied weather packets stored in our database for station/object Dunnningn. If no packets are shown the sender has not sent any weather packets the latest 1 day(s).
| Time | Temp. | Humidity | Pressure | Rain* | Wind** | Luminosity | Snow |
|---|---|---|---|---|---|---|---|
| 1778101330 | 7.78° C | 92% | 1010.5 hPa | 6.86 mm | - | - | - |
| 1778099531 | 8.33° C | 91% | 1010.5 hPa | 6.35 mm | - | - | - |
| 1778097730 | 8.33° C | 91% | 1010.3 hPa | 5.84 mm | - | - | - |
| 1778095935 | 8.33° C | 91% | 1009.9 hPa | 4.83 mm | - | - | - |
| 1778090536 | 8.89° C | 91% | 1008.9 hPa | 3.3 mm | - | - | - |
| 1778088730 | 8.89° C | 91% | 1008.5 hPa | 3.05 mm | - | - | - |
| 1778085130 | 9.44° C | 89% | 1008.4 hPa | 2.29 mm | - | - | - |
| 1778079730 | 11.11° C | 89% | 1007.7 hPa | 1.78 mm | - | - | - |
| 1778068930 | 12.22° C | 85% | 1006.3 hPa | 0.25 mm | - | - | - |
| 1778067137 | 12.78° C | 78% | 1006.3 hPa | 0.25 mm | - | - | - |
| 1778061734 | 15° C | 69% | 1006.3 hPa | 0.25 mm | - | - | - |
| 1778059931 | 15° C | 70% | 1006.5 hPa | 0.25 mm | - | - | - |
| 1778058131 | 14.44° C | 72% | 1006.5 hPa | 0.25 mm | - | - | - |
| 1778054532 | 13.89° C | 77% | 1006.5 hPa | 0.25 mm | - | - | - |
| 1778052731 | 12.22° C | 83% | 1006.5 hPa | 0.25 mm | - | - | - |
| 1778050932 | 11.11° C | 88% | 1006.4 hPa | 0.25 mm | - | - | - |
| 1778040131 | 6.11° C | 92% | 1007 hPa | 0 mm | - | - | - |
| 1778036532 | 6.67° C | 92% | 1007.5 hPa | 0 mm | - | - | - |
| 1778032932 | 7.22° C | 92% | 1007.9 hPa | 0 mm | - | - | - |
| 1778031131 | 7.22° C | 92% | 1008 hPa | 0 mm | - | - | - |
| 1778029332 | 7.78° C | 91% | 1008.1 hPa | 0 mm | - | - | - |
| 1778020330 | 8.89° C | 91% | 1008.9 hPa | 0 mm | - | - | - |
| 1778016731 | 10° C | 89% | 1008.7 hPa | 4.06 mm | - | - | - |
* Rain since midnight (hover to see other rain measurements)
** Current wind speed in m/s (hover to see current wind gust speed)